Terminal Aerodrome Forecast
Issued by NWS

Home | Current Version | Previous Version | Text Only | Print | Product List | Glossary Off
Versions: 1 2 3 4 5 6 7 8 9 10 11 12 13 14 15 16 17

000
FTUS43 KMPX 242300 RRA
TAFRNH
TAF
KRNH 242341Z 2500/2524 31015G22KT P6SM OVC025
     FM250900 29007KT P6SM SCT025
     FM251300 VRB03KT P6SM FEW050=

USA.gov is the U.S. government's official web portal to all federal, state and local government web resources and services.